createdAt,value
2022-10-11T00:00:56.629Z,82.25
2022-10-11T00:03:24.870Z,82.52
2022-10-11T00:05:53.971Z,81.36
2022-10-11T00:08:22.278Z,80.53
2022-10-11T00:10:59.843Z,81.37
2022-10-11T00:13:28.193Z,82.16
2022-10-11T00:15:56.404Z,82.61
2022-10-11T00:18:25.204Z,83.43
2022-10-11T00:21:02.122Z,83.53
2022-10-11T00:23:30.408Z,83.07
2022-10-11T00:26:01.934Z,82.40
2022-10-11T00:28:30.872Z,82.99
2022-10-11T00:30:59.088Z,82.67
2022-10-11T00:33:27.326Z,82.44
2022-10-11T00:35:55.392Z,81.77
2022-10-11T00:38:23.533Z,82.59
2022-10-11T00:40:51.736Z,83.72
2022-10-11T00:43:23.377Z,84.22
2022-10-11T00:46:22.780Z,84.51
2022-10-11T00:48:55.325Z,84.08
2022-10-11T00:51:27.423Z,84.38
2022-10-11T00:53:56.056Z,85.00
2022-10-11T00:56:27.946Z,85.67
2022-10-11T00:58:59.378Z,85.68
2022-10-11T01:01:27.989Z,85.68
2022-10-11T01:03:56.988Z,85.67
2022-10-11T01:06:25.222Z,86.04
2022-10-11T01:08:54.226Z,86.47
2022-10-11T01:11:26.473Z,86.99
2022-10-11T01:14:16.746Z,86.25
2022-10-11T01:16:53.136Z,86.19
2022-10-11T01:19:45.057Z,86.14
2022-10-11T01:22:27.749Z,85.91
2022-10-11T01:25:18.049Z,86.17
2022-10-11T01:27:57.236Z,86.09
2022-10-11T01:30:29.942Z,84.85
2022-10-11T01:33:27.768Z,84.07
2022-10-11T01:36:05.772Z,84.88
2022-10-11T01:38:40.060Z,85.16
2022-10-11T01:41:14.748Z,84.31
2022-10-11T01:43:45.944Z,83.76
2022-10-11T01:46:17.534Z,84.29
2022-10-11T01:48:50.232Z,84.87
2022-10-11T01:51:24.316Z,85.37
2022-10-11T01:54:11.087Z,86.03
2022-10-11T01:57:05.572Z,86.42
2022-10-11T01:59:45.803Z,86.47
2022-10-11T02:02:32.292Z,86.46
2022-10-11T02:05:08.686Z,85.96
2022-10-11T02:07:44.124Z,84.92
2022-10-11T02:10:16.991Z,84.77
2022-10-11T02:12:50.301Z,85.20
2022-10-11T02:15:20.453Z,85.75
2022-10-11T02:17:55.477Z,86.14
2022-10-11T02:20:27.485Z,86.46
2022-10-11T02:23:02.210Z,88.47
2022-10-11T02:25:34.454Z,89.43
2022-10-11T02:28:05.442Z,89.49
2022-10-11T02:30:35.355Z,89.47
2022-10-11T02:33:08.650Z,89.40
2022-10-11T02:35:44.120Z,89.46
2022-10-11T02:38:18.766Z,89.42
2022-10-11T02:40:51.987Z,89.71
2022-10-11T02:43:27.422Z,89.88
2022-10-11T02:45:59.144Z,90.32
2022-10-11T02:48:29.544Z,90.21
2022-10-11T02:50:58.718Z,90.29
2022-10-11T02:53:27.810Z,90.41
2022-10-11T02:55:56.906Z,90.36
2022-10-11T02:58:25.606Z,90.39
2022-10-11T03:00:53.792Z,90.26
2022-10-11T03:03:22.146Z,88.58
2022-10-11T03:05:51.656Z,88.59
2022-10-11T03:08:19.756Z,88.99
2022-10-11T03:10:48.409Z,88.50
2022-10-11T03:13:18.509Z,88.80
2022-10-11T03:16:01.847Z,89.27
2022-10-11T03:18:31.748Z,89.75
2022-10-11T03:21:01.346Z,90.19
2022-10-11T03:23:29.911Z,90.54
2022-10-11T03:25:57.967Z,90.22
2022-10-11T03:28:26.155Z,90.07
2022-10-11T03:30:54.357Z,90.48
2022-10-11T03:33:22.755Z,90.79
2022-10-11T03:35:51.205Z,90.77
2022-10-11T03:38:23.748Z,91.11
2022-10-11T03:40:52.024Z,91.20
2022-10-11T03:43:20.107Z,91.75
2022-10-11T03:45:48.401Z,92.00
2022-10-11T03:48:17.584Z,92.41
2022-10-11T03:50:46.362Z,92.08
2022-10-11T03:53:14.745Z,91.88
2022-10-11T03:55:44.310Z,92.08
2022-10-11T03:58:12.497Z,92.03
2022-10-11T04:00:41.028Z,92.20
2022-10-11T04:03:09.121Z,92.28
2022-10-11T04:05:37.602Z,92.27
2022-10-11T04:08:09.818Z,92.36
2022-10-11T04:10:40.699Z,92.12
2022-10-11T04:13:10.970Z,92.02
2022-10-11T04:15:41.347Z,91.81
2022-10-11T04:18:10.110Z,91.77
2022-10-11T04:20:38.303Z,91.49
2022-10-11T04:23:06.446Z,91.17
2022-10-11T04:25:34.573Z,90.84
2022-10-11T04:28:03.067Z,89.97
2022-10-11T04:30:32.686Z,88.79
2022-10-11T04:33:00.853Z,88.59
2022-10-11T04:35:29.052Z,87.45
2022-10-11T04:37:57.160Z,86.04
2022-10-11T04:40:25.221Z,85.15
2022-10-11T04:42:53.915Z,84.71
2022-10-11T04:45:21.999Z,83.83
2022-10-11T04:47:51.545Z,83.25
2022-10-11T04:50:19.904Z,82.73
2022-10-11T04:52:48.057Z,82.73
2022-10-11T04:55:16.287Z,82.11
2022-10-11T04:57:44.517Z,81.94
2022-10-11T05:00:13.880Z,81.69
2022-10-11T05:02:41.995Z,81.60
2022-10-11T05:05:13.079Z,81.17
2022-10-11T05:07:42.201Z,80.32
2022-10-11T05:10:11.647Z,80.07
2022-10-11T05:12:39.828Z,79.22
2022-10-11T05:15:09.416Z,78.29
2022-10-11T05:17:37.510Z,76.87
2022-10-11T05:20:10.123Z,76.06
2022-10-11T05:22:39.774Z,74.94
2022-10-11T05:25:08.472Z,74.16
2022-10-11T05:27:36.558Z,73.31
2022-10-11T05:30:06.181Z,72.79
2022-10-11T05:32:34.872Z,72.04
2022-10-11T05:35:03.122Z,71.96
2022-10-11T05:37:31.217Z,72.17
2022-10-11T05:40:00.705Z,71.25
2022-10-11T05:42:28.956Z,71.15
2022-10-11T05:44:57.155Z,70.18
2022-10-11T05:47:25.252Z,67.97
2022-10-11T05:49:53.891Z,66.40
2022-10-11T05:52:22.049Z,64.76
2022-10-11T05:54:50.501Z,65.33
2022-10-11T05:57:20.062Z,66.65
2022-10-11T05:59:48.107Z,65.88
2022-10-11T06:02:17.336Z,66.30
2022-10-11T06:04:45.415Z,66.99
2022-10-11T06:07:13.560Z,64.82
2022-10-11T06:09:41.661Z,62.37
2022-10-11T06:12:09.779Z,61.58
2022-10-11T06:14:39.552Z,60.84
2022-10-11T06:17:08.108Z,61.93
2022-10-11T06:19:36.309Z,62.59
2022-10-11T06:22:04.405Z,65.16
2022-10-11T06:24:32.570Z,65.16
2022-10-11T06:27:00.662Z,65.32
2022-10-11T06:29:28.717Z,65.88
2022-10-11T06:31:58.511Z,67.85
2022-10-11T06:34:26.677Z,68.00
2022-10-11T06:37:01.133Z,68.57
2022-10-11T06:39:29.464Z,69.48
2022-10-11T06:42:00.650Z,69.13
2022-10-11T06:44:32.913Z,68.97
2022-10-11T06:47:02.559Z,71.51
2022-10-11T06:49:34.556Z,70.29
2022-10-11T06:52:02.791Z,70.77
2022-10-11T06:54:31.280Z,71.16
2022-10-11T06:56:59.860Z,70.66
2022-10-11T06:59:30.428Z,70.21
2022-10-11T07:02:00.098Z,70.68
2022-10-11T07:04:30.630Z,71.15
2022-10-11T07:06:58.725Z,70.41
2022-10-11T07:09:27.216Z,70.83
2022-10-11T07:11:55.465Z,71.98
2022-10-11T07:14:23.650Z,70.21
2022-10-11T07:16:52.040Z,67.66
2022-10-11T07:19:20.826Z,66.69
2022-10-11T07:21:50.436Z,67.95
2022-10-11T07:24:18.585Z,67.41
2022-10-11T07:26:46.649Z,64.71
2022-10-11T07:29:14.951Z,64.77
2022-10-11T07:31:44.653Z,65.36
2022-10-11T07:34:13.208Z,64.02
2022-10-11T07:36:41.483Z,64.14
2022-10-11T07:39:11.535Z,62.60
2022-10-11T07:41:45.410Z,62.57
2022-10-11T07:44:14.265Z,63.57
2022-10-11T07:46:42.533Z,63.47
2022-10-11T07:49:10.613Z,62.74
2022-10-11T07:51:38.712Z,61.72
2022-10-11T07:54:07.641Z,61.93
2022-10-11T07:56:38.265Z,61.88
2022-10-11T07:59:06.460Z,59.04
2022-10-11T08:01:34.942Z,59.19
2022-10-11T08:04:03.180Z,57.87
2022-10-11T08:06:32.900Z,57.21
2022-10-11T08:09:02.657Z,57.56
2022-10-11T08:11:33.204Z,56.12
2022-10-11T08:14:04.546Z,56.96
2022-10-11T08:16:32.699Z,57.76
2022-10-11T08:19:01.486Z,57.07
2022-10-11T08:21:30.012Z,56.52
2022-10-11T08:23:58.238Z,55.56
2022-10-11T08:26:26.777Z,56.00
2022-10-11T08:28:54.955Z,54.32
2022-10-11T08:31:24.485Z,55.49
2022-10-11T08:33:52.757Z,56.57
2022-10-11T08:36:21.047Z,54.74
2022-10-11T08:38:49.228Z,56.15
2022-10-11T08:41:32.552Z,56.11
2022-10-11T08:44:16.111Z,55.42
2022-10-11T08:46:51.585Z,54.25
2022-10-11T08:49:24.354Z,53.55
2022-10-11T08:52:00.266Z,52.63
2022-10-11T08:54:37.227Z,51.66
2022-10-11T08:57:07.110Z,52.19
2022-10-11T08:59:42.851Z,51.47
2022-10-11T09:02:43.702Z,50.28
2022-10-11T09:05:19.891Z,51.58
2022-10-11T09:07:57.118Z,50.46
2022-10-11T09:10:51.044Z,50.84
2022-10-11T09:13:42.407Z,50.10
2022-10-11T09:16:20.057Z,50.10
2022-10-11T09:19:22.053Z,50.66
2022-10-11T09:21:59.133Z,50.41
2022-10-11T09:24:57.313Z,49.06
2022-10-11T09:27:57.389Z,50.58
2022-10-11T09:30:21.905Z,49.85
2022-10-11T09:33:03.579Z,50.26
2022-10-11T09:35:38.991Z,49.83
2022-10-11T09:38:14.249Z,48.55
2022-10-11T09:40:52.943Z,49.07
2022-10-11T09:43:21.167Z,49.32
2022-10-11T09:45:49.853Z,49.48
2022-10-11T09:48:21.610Z,50.01
2022-10-11T09:50:52.902Z,50.04
2022-10-11T09:53:22.732Z,50.41
2022-10-11T09:55:54.645Z,49.19
2022-10-11T09:58:31.502Z,49.61
2022-10-11T10:01:07.636Z,50.53
2022-10-11T10:03:38.081Z,50.14
2022-10-11T10:06:10.633Z,50.86
2022-10-11T10:08:38.963Z,50.44
2022-10-11T10:11:09.561Z,50.64
2022-10-11T10:13:44.421Z,51.73
2022-10-11T10:16:27.973Z,49.95
2022-10-11T10:18:57.984Z,50.34
2022-10-11T10:21:31.563Z,51.19
2022-10-11T10:24:03.384Z,51.49
2022-10-11T10:26:32.872Z,51.38
2022-10-11T10:29:06.738Z,51.17
2022-10-11T10:32:01.564Z,51.01
2022-10-11T10:34:31.194Z,51.56
2022-10-11T10:37:05.110Z,51.01
2022-10-11T10:39:40.892Z,51.71
2022-10-11T10:42:15.335Z,52.42
2022-10-11T10:44:44.026Z,51.87
2022-10-11T10:47:22.274Z,52.20
2022-10-11T10:49:58.584Z,52.02
2022-10-11T10:52:50.370Z,51.79
2022-10-11T10:55:27.054Z,51.85
2022-10-11T10:58:07.222Z,50.85
2022-10-11T11:00:44.726Z,50.90
2022-10-11T11:03:22.909Z,52.17
2022-10-11T11:06:02.045Z,52.07
2022-10-11T11:08:48.070Z,52.17
2022-10-11T11:11:33.580Z,52.32
2022-10-11T11:14:11.115Z,52.70
2022-10-11T11:16:46.240Z,52.27
2022-10-11T11:19:29.156Z,52.36
2022-10-11T11:22:03.442Z,53.31
2022-10-11T11:24:41.289Z,53.23
2022-10-11T11:27:19.583Z,53.75
2022-10-11T11:29:55.664Z,53.94
2022-10-11T11:32:36.212Z,53.39
2022-10-11T11:35:10.943Z,53.99
2022-10-11T11:37:42.033Z,55.98
2022-10-11T11:40:18.515Z,55.45
2022-10-11T11:42:50.308Z,56.21
2022-10-11T11:45:22.597Z,56.20
2022-10-11T11:47:56.203Z,56.03
2022-10-11T11:50:28.604Z,56.40
2022-10-11T11:53:04.792Z,56.53
2022-10-11T11:55:43.809Z,57.19
2022-10-11T11:58:26.379Z,56.34
2022-10-11T12:01:04.010Z,56.09
2022-10-11T12:03:41.642Z,57.44
2022-10-11T12:06:31.766Z,57.22
2022-10-11T12:09:06.497Z,56.71
2022-10-11T12:11:47.654Z,56.83
2022-10-11T12:14:37.735Z,57.77
2022-10-11T12:17:12.852Z,58.36
2022-10-11T12:19:43.431Z,58.60
2022-10-11T12:22:20.939Z,59.36
2022-10-11T12:24:56.873Z,58.34
2022-10-11T12:27:41.643Z,58.36
2022-10-11T12:30:57.582Z,57.73
2022-10-11T12:33:46.910Z,58.47
2022-10-11T12:36:35.678Z,59.24
2022-10-11T12:39:52.968Z,58.88
2022-10-11T12:42:28.065Z,57.18
2022-10-11T12:45:35.624Z,57.66
2022-10-11T12:48:41.205Z,58.12
2022-10-11T12:51:33.737Z,58.61
2022-10-11T12:54:30.998Z,57.76
2022-10-11T12:57:26.709Z,57.20
2022-10-11T12:59:54.971Z,57.03
2022-10-11T13:02:30.542Z,56.48
2022-10-11T13:05:09.319Z,57.26
2022-10-11T13:07:37.727Z,56.70
2022-10-11T13:10:07.184Z,56.79
2022-10-11T13:12:42.089Z,57.77
2022-10-11T13:15:16.628Z,57.38
2022-10-11T13:17:46.160Z,58.20
2022-10-11T13:20:20.066Z,58.76
2022-10-11T13:22:50.324Z,59.21
2022-10-11T13:25:21.688Z,58.04
2022-10-11T13:27:51.545Z,57.50
2022-10-11T13:30:22.036Z,57.98
2022-10-11T13:32:53.375Z,59.01
2022-10-11T13:35:26.190Z,58.67
2022-10-11T13:37:54.332Z,58.44
2022-10-11T13:40:23.503Z,58.39
2022-10-11T13:42:54.049Z,58.44
2022-10-11T13:45:24.563Z,58.58
2022-10-11T13:47:55.679Z,58.81
2022-10-11T13:50:30.983Z,58.01
2022-10-11T13:53:01.549Z,58.70
2022-10-11T13:55:32.867Z,59.22
2022-10-11T13:58:03.279Z,59.29
2022-10-11T14:00:35.367Z,59.38
2022-10-11T14:03:10.135Z,59.08
2022-10-11T14:05:41.330Z,59.63
2022-10-11T14:08:23.108Z,59.70
2022-10-11T14:10:56.741Z,59.84
2022-10-11T14:13:30.292Z,59.86
2022-10-11T14:16:08.991Z,60.39
2022-10-11T14:18:45.187Z,60.48
2022-10-11T14:21:36.077Z,61.35
2022-10-11T14:24:06.385Z,61.67
2022-10-11T14:26:37.332Z,61.61
2022-10-11T14:29:08.972Z,61.62
2022-10-11T14:31:41.509Z,63.30
2022-10-11T14:34:17.578Z,62.81
2022-10-11T14:36:45.713Z,63.70
2022-10-11T14:39:17.596Z,63.52
2022-10-11T14:41:46.059Z,63.17
2022-10-11T14:44:14.451Z,63.65
2022-10-11T14:46:42.781Z,63.27
2022-10-11T14:49:17.958Z,63.53
2022-10-11T14:51:47.923Z,63.95
2022-10-11T14:54:18.970Z,64.98
2022-10-11T14:56:48.030Z,64.91
2022-10-11T14:59:18.450Z,64.59
2022-10-11T15:01:51.724Z,65.21
2022-10-11T15:04:22.081Z,65.89
2022-10-11T15:06:50.400Z,65.89
2022-10-11T15:09:20.900Z,66.03
2022-10-11T15:11:50.288Z,66.07
2022-10-11T15:14:18.670Z,66.15
2022-10-11T15:16:46.980Z,66.00
2022-10-11T15:19:16.857Z,66.31
2022-10-11T15:21:46.429Z,66.73
2022-10-11T15:24:15.130Z,66.80
2022-10-11T15:26:46.186Z,66.68
2022-10-11T15:29:22.071Z,66.56
2022-10-11T15:31:50.476Z,66.34
2022-10-11T15:34:21.998Z,66.12
2022-10-11T15:36:51.556Z,66.03
2022-10-11T15:39:28.656Z,66.12
2022-10-11T15:41:58.666Z,66.24
2022-10-11T15:44:30.088Z,66.81
2022-10-11T15:47:01.284Z,66.98
2022-10-11T15:49:29.352Z,66.86
2022-10-11T15:52:06.037Z,67.26
2022-10-11T15:54:34.154Z,67.09
2022-10-11T15:57:05.140Z,67.27
2022-10-11T15:59:35.052Z,67.21
2022-10-11T16:02:04.786Z,66.67
2022-10-11T16:04:32.946Z,66.81
2022-10-11T16:07:02.397Z,66.50
2022-10-11T16:09:30.482Z,66.13
2022-10-11T16:11:58.625Z,66.32
2022-10-11T16:14:26.979Z,66.79
2022-10-11T16:17:01.415Z,66.52
2022-10-11T16:19:29.568Z,66.56
2022-10-11T16:21:57.800Z,67.33
2022-10-11T16:24:27.821Z,67.19
2022-10-11T16:26:56.114Z,67.48
2022-10-11T16:29:25.686Z,67.35
2022-10-11T16:31:53.886Z,67.66
2022-10-11T16:34:22.009Z,67.68
2022-10-11T16:36:50.321Z,67.87
2022-10-11T16:39:19.885Z,68.12
2022-10-11T16:41:49.612Z,68.48
2022-10-11T16:44:19.596Z,68.61
2022-10-11T16:46:49.751Z,68.51
2022-10-11T16:49:19.310Z,68.79
2022-10-11T16:51:47.471Z,69.11
2022-10-11T16:54:20.014Z,69.24
2022-10-11T16:56:51.127Z,69.51
2022-10-11T16:59:19.331Z,69.68
2022-10-11T17:01:47.853Z,69.79
2022-10-11T17:04:16.574Z,69.89
2022-10-11T17:06:45.263Z,69.96
2022-10-11T17:09:14.019Z,70.19
2022-10-11T17:11:42.695Z,69.90
2022-10-11T17:14:13.225Z,70.38
2022-10-11T17:16:41.946Z,70.67
2022-10-11T17:19:12.902Z,70.81
2022-10-11T17:21:41.498Z,70.69
2022-10-11T17:24:10.073Z,70.80
2022-10-11T17:26:38.199Z,71.09
2022-10-11T17:29:06.297Z,71.33
2022-10-11T17:31:38.431Z,71.11
2022-10-11T17:34:06.523Z,70.43
2022-10-11T17:36:35.408Z,70.87
2022-10-11T17:39:05.704Z,71.11
2022-10-11T17:41:33.845Z,70.76
2022-10-11T17:44:03.179Z,70.99
2022-10-11T17:46:32.981Z,70.97
2022-10-11T17:49:04.807Z,70.85
2022-10-11T17:51:34.108Z,71.23
2022-10-11T17:54:02.266Z,70.96
2022-10-11T17:56:37.405Z,70.91
2022-10-11T17:59:06.868Z,70.93
2022-10-11T18:01:35.177Z,70.60
2022-10-11T18:04:09.305Z,70.45
2022-10-11T18:06:40.549Z,70.41
2022-10-11T18:09:08.821Z,70.62
2022-10-11T18:11:37.127Z,71.11
2022-10-11T18:14:06.297Z,71.08
2022-10-11T18:16:34.447Z,71.21
2022-10-11T18:19:06.489Z,71.14
2022-10-11T18:21:36.761Z,71.07
2022-10-11T18:24:07.913Z,71.56
2022-10-11T18:26:36.076Z,72.12
2022-10-11T18:29:05.210Z,72.22
2022-10-11T18:31:35.272Z,72.70
2022-10-11T18:34:10.138Z,72.46
2022-10-11T18:36:44.486Z,72.46
2022-10-11T18:39:15.059Z,72.45
2022-10-11T18:41:44.585Z,72.23
2022-10-11T18:44:15.375Z,71.91
2022-10-11T18:46:44.285Z,72.32
2022-10-11T18:49:14.694Z,72.26
2022-10-11T18:51:48.009Z,72.34
2022-10-11T18:54:20.186Z,72.19
2022-10-11T18:56:49.897Z,72.71
2022-10-11T18:59:18.357Z,72.62
2022-10-11T19:01:46.904Z,72.73
2022-10-11T19:04:17.485Z,72.52
2022-10-11T19:06:48.353Z,72.12
2022-10-11T19:09:21.486Z,72.11
2022-10-11T19:11:50.514Z,72.39
2022-10-11T19:14:21.306Z,73.03
2022-10-11T19:16:52.037Z,73.25
2022-10-11T19:19:23.588Z,73.22
2022-10-11T19:21:51.824Z,73.04
2022-10-11T19:24:21.883Z,72.96
2022-10-11T19:26:52.066Z,72.92
2022-10-11T19:29:22.249Z,73.21
2022-10-11T19:31:52.571Z,72.84
2022-10-11T19:34:23.408Z,73.42
2022-10-11T19:36:53.389Z,73.16
2022-10-11T19:39:23.047Z,73.17
2022-10-11T19:41:51.319Z,73.20
2022-10-11T19:44:19.574Z,73.34
2022-10-11T19:46:52.452Z,73.70
2022-10-11T19:49:25.229Z,73.89
2022-10-11T19:51:55.320Z,74.40
2022-10-11T19:54:24.136Z,73.53
2022-10-11T19:56:52.611Z,74.91
2022-10-11T19:59:20.701Z,74.16
2022-10-11T20:01:52.853Z,73.87
2022-10-11T20:07:11.902Z,74.76
2022-10-11T20:09:40.109Z,74.05
2022-10-11T20:12:08.764Z,73.87
2022-10-11T20:14:37.110Z,73.92
2022-10-11T20:17:05.229Z,73.50
2022-10-11T20:19:34.781Z,72.41
2022-10-11T20:22:03.251Z,72.60
2022-10-11T20:24:33.634Z,73.54
2022-10-11T20:27:03.030Z,73.92
2022-10-11T20:29:31.263Z,74.67
2022-10-11T20:32:00.197Z,74.26
2022-10-11T20:34:28.933Z,74.88
2022-10-11T20:36:58.393Z,74.09
2022-10-11T20:39:26.487Z,74.54
2022-10-11T20:41:54.946Z,74.84
2022-10-11T20:44:23.080Z,74.22
2022-10-11T20:46:51.294Z,75.13
2022-10-11T20:49:20.772Z,74.88
2022-10-11T20:51:48.860Z,75.70
2022-10-11T20:54:18.934Z,75.76
2022-10-11T20:56:47.042Z,75.92
2022-10-11T20:59:15.244Z,75.50
2022-10-11T21:01:43.522Z,75.63
2022-10-11T21:04:19.072Z,75.15
2022-10-11T21:06:47.620Z,75.49
2022-10-11T21:09:16.796Z,76.02
2022-10-11T21:11:46.624Z,76.80
2022-10-11T21:14:15.189Z,76.16
2022-10-11T21:16:43.398Z,76.44
2022-10-11T21:19:14.825Z,76.80
2022-10-11T21:21:43.580Z,76.70
2022-10-11T21:24:11.687Z,76.89
2022-10-11T21:26:39.945Z,76.91
2022-10-11T21:29:09.564Z,77.26
2022-10-11T21:31:37.841Z,76.92
2022-10-11T21:34:07.437Z,76.74
2022-10-11T21:36:35.562Z,78.02
2022-10-11T21:39:03.872Z,77.18
2022-10-11T21:41:32.156Z,76.82
2022-10-11T21:44:00.817Z,76.38
2022-10-11T21:47:01.215Z,76.95
2022-10-11T21:49:21.184Z,76.80
2022-10-11T21:51:49.553Z,77.15
2022-10-11T21:54:18.271Z,77.77
2022-10-11T21:56:47.412Z,77.39
2022-10-11T21:59:15.955Z,77.60
2022-10-11T22:01:45.607Z,77.26
2022-10-11T22:04:13.878Z,77.64
2022-10-11T22:06:42.124Z,77.93
2022-10-11T22:09:10.362Z,78.06
2022-10-11T22:11:39.049Z,77.90
2022-10-11T22:14:07.291Z,78.39
2022-10-11T22:16:36.079Z,79.10
2022-10-11T22:19:05.663Z,79.19
2022-10-11T22:21:34.062Z,78.98
2022-10-11T22:24:02.249Z,79.00
2022-10-11T22:26:32.459Z,78.96
2022-10-11T22:29:00.983Z,79.08
2022-10-11T22:31:29.942Z,79.77
2022-10-11T22:33:59.598Z,79.44
2022-10-11T22:36:30.659Z,79.21
2022-10-11T22:38:59.070Z,79.31
2022-10-11T22:41:27.539Z,79.68
2022-10-11T22:43:55.608Z,78.72
2022-10-11T22:46:23.759Z,78.53
2022-10-11T22:48:51.832Z,77.81
2022-10-11T22:51:21.177Z,78.16
2022-10-11T22:53:50.731Z,78.56
2022-10-11T22:56:19.010Z,78.24
2022-10-11T22:58:47.081Z,78.45
2022-10-11T23:01:16.229Z,77.93
2022-10-11T23:03:44.841Z,78.84
2022-10-11T23:06:12.984Z,78.88
2022-10-11T23:08:41.121Z,79.40
2022-10-11T23:11:12.566Z,79.65
2022-10-11T23:13:40.777Z,80.13
2022-10-11T23:16:10.224Z,79.42
2022-10-11T23:18:38.787Z,79.28
2022-10-11T23:21:08.168Z,79.78
2022-10-11T23:23:36.759Z,79.39
2022-10-11T23:26:06.151Z,79.45
2022-10-11T23:28:36.138Z,79.73
2022-10-11T23:31:09.103Z,79.45
2022-10-11T23:33:37.732Z,79.16
2022-10-11T23:36:06.454Z,79.09
2022-10-11T23:38:34.636Z,79.53
2022-10-11T23:41:03.353Z,79.93
2022-10-11T23:43:31.456Z,79.41
2022-10-11T23:46:01.005Z,79.47
2022-10-11T23:48:29.206Z,79.17
2022-10-11T23:50:57.272Z,78.07
2022-10-11T23:53:26.654Z,78.50
2022-10-11T23:55:54.706Z,77.80
2022-10-11T23:58:22.852Z,77.37
